Belle Chasse — WDG2912 — position and weather

sailwx.info

Track history (hours):
 
Tides and Currents Weather Stations Pressure Air Temp Water Temp Dewpoint Dewpoint Depression Visibility Wind Speed Wind Dir Waves Ship Positions

Belle Chasse

Owner: Higman Barge Lines, Inc, Orange, TX. More information available from US FCC via Universal Licensing System and Coast Guard Vessel Documentation Center.

Last reported at 2015-Feb-27 15:15 UTC. Time now 2015-Feb-27 16:58 UTC.
Position N 29°26' W 094°50'.

Length 26 m; draft 3 m.

Type: Towing. MMSI: 367520550.

Date/timePositionNaut miles runAvg speedWind from/ knotsBaromVisibWave heightAir tempDewpointWater temp
2015-Feb-27 15:15N 29°26' W 094°50'5 7.3
2015-Feb-27 14:33N 29°30' W 094°52'7 7.2
2015-Feb-27 13:33N 29°36' W 094°57'7 7.1
2015-Feb-27 12:33N 29°42' W 095°01'5 5.4
2015-Feb-27 11:33N 29°44' W 095°07'4 0.2
2015-Feb-26 14:32N 29°45' W 095°12'0 0.0
2015-Feb-25 20:18N 29°45' W 095°11'3 3.5
2015-Feb-25 19:33N 29°44' W 095°08'2 2.2
2015-Feb-25 18:33N 29°45' W 095°06'1 1.0
2015-Feb-25 17:29N 29°46' W 095°07'0 0.0
2015-Feb-25 16:13N 29°46' W 095°07'0 0.0
2015-Feb-25 15:22N 29°46' W 095°07'0 0.0
2015-Feb-25 14:28N 29°46' W 095°07'0 0.0
2015-Feb-25 13:22N 29°46' W 095°07'0 0.0
2015-Feb-25 12:22N 29°46' W 095°07'0 0.0
2015-Feb-25 11:28N 29°46' W 095°07'0 0.0
2015-Feb-25 10:28N 29°46' W 095°07'0 0.0
2015-Feb-25 02:30N 29°46' W 095°07'1 1.3
2015-Feb-25 01:32N 29°45' W 095°07'0 0.0
2015-Feb-25 00:32N 29°45' W 095°07'0 0.0
2015-Feb-24 23:32N 29°45' W 095°07'0 0.0
2015-Feb-24 22:26N 29°45' W 095°07'0 0.0
2015-Feb-24 21:32N 29°45' W 095°07'1 1.0
2015-Feb-24 20:30N 29°46' W 095°06'0 0.0
2015-Feb-24 13:31N 29°46' W 095°07'0 0.0
2015-Feb-24 12:31N 29°46' W 095°07'0 0.0
2015-Feb-24 11:31N 29°46' W 095°07'0 0.0
2015-Feb-24 10:31N 29°46' W 095°07'0 0.0
2015-Feb-24 09:31N 29°46' W 095°07'0 0.0
2015-Feb-24 08:31N 29°46' W 095°07'0 0.0
2015-Feb-24 07:31N 29°46' W 095°07'0 0.0
2015-Feb-24 06:31N 29°46' W 095°07'0 0.0
2015-Feb-24 05:31N 29°46' W 095°07'0 0.0
2015-Feb-24 04:31N 29°46' W 095°07'0 0.0
2015-Feb-24 03:31N 29°46' W 095°07'0 0.0
2015-Feb-24 02:31N 29°46' W 095°07'0 0.0
2015-Feb-24 01:31N 29°46' W 095°07'0 0.0
2015-Feb-24 00:25N 29°46' W 095°07'0 0.0
2015-Feb-23 23:31N 29°46' W 095°07'0 0.0
2015-Feb-23 22:31N 29°46' W 095°07'1 1.1
2015-Feb-23 21:33N 29°45' W 095°06'2 1.6
2015-Feb-23 20:33N 29°47' W 095°05'0 0.0
2015-Feb-23 19:33N 29°47' W 095°05'0 0.0
2015-Feb-23 18:33N 29°47' W 095°05'0 0.0
2015-Feb-23 17:27N 29°47' W 095°05'0 0.0
2015-Feb-23 16:24N 29°47' W 095°05'2 2.4
2015-Feb-23 15:31N 29°46' W 095°07'0 0.0
2015-Feb-23 14:16N 29°46' W 095°07'1 1.5
2015-Feb-23 13:28N 29°45' W 095°07'0 0.0
2015-Feb-23 12:31N 29°45' W 095°07'0 0.0
2015-Feb-23 11:28N 29°45' W 095°07'1 1.1
2015-Feb-23 10:33N 29°46' W 095°06'1 0.6
2015-Feb-23 09:31N 29°46' W 095°07'872871.8
2015-Feb-23 08:31N 29°46' W 111°51'872829.8
2015-Feb-23 07:28N 29°46' W 095°07'0 0.0
2015-Feb-23 06:28N 29°46' W 095°07'0 0.0
2015-Feb-23 05:31N 29°46' W 095°07'0 0.0
2015-Feb-23 04:31N 29°46' W 095°07'0 0.0
2015-Feb-23 03:31N 29°46' W 095°07'0 0.0
2015-Feb-23 02:31N 29°46' W 095°07'0 0.0
2015-Feb-23 01:31N 29°46' W 095°07'0 0.0
2015-Feb-23 00:31N 29°46' W 095°07'0 0.0
2015-Feb-22 23:31N 29°46' W 095°07'0 0.1
2015-Feb-22 22:28N 29°46' W 095°07'0 0.0
2015-Feb-22 21:22N 29°46' W 095°07'0 0.0
2015-Feb-22 20:22N 29°46' W 095°07'0 0.0
2015-Feb-22 19:31N 29°46' W 095°07'0 0.1
2015-Feb-22 18:32N 29°46' W 095°07'0 0.0
2015-Feb-22 17:32N 29°46' W 095°07'0 0.0
2015-Feb-22 16:32N 29°46' W 095°07'0 0.1
2015-Feb-22 15:33N 29°46' W 095°07'0 0.1
2015-Feb-22 14:31N 29°46' W 095°07'0 0.0
2015-Feb-22 13:31N 29°46' W 095°07'0 0.0
2015-Feb-22 12:31N 29°46' W 095°07'0 0.0
2015-Feb-22 11:31N 29°46' W 095°07'0 0.0
2015-Feb-22 10:31N 29°46' W 095°07'0 0.0
2015-Feb-22 09:31N 29°46' W 095°07'1 1.3
2015-Feb-22 08:32N 29°45' W 095°06'0 0.0
2015-Feb-22 07:32N 29°45' W 095°06'0 0.0
2015-Feb-22 06:33N 29°45' W 095°06'1 1.2
2015-Feb-22 05:31N 29°46' W 095°07'0 0.0
2015-Feb-22 04:31N 29°46' W 095°07'0 0.0
2015-Feb-22 03:31N 29°46' W 095°07'0 0.0
2015-Feb-22 02:28N 29°46' W 095°07'0 0.0
2015-Feb-22 01:31N 29°46' W 095°07'0 0.0
2015-Feb-22 00:31N 29°46' W 095°07'0 0.0
2015-Feb-21 23:31N 29°46' W 095°07'0 0.0
2015-Feb-21 22:31N 29°46' W 095°07'0 0.0
2015-Feb-21 21:31N 29°46' W 095°07'0 0.0
2015-Feb-21 20:31N 29°46' W 095°07'0 0.0
2015-Feb-21 19:31N 29°46' W 095°07'0 0.0
2015-Feb-21 18:31N 29°46' W 095°07'0 0.0
2015-Feb-21 17:31N 29°46' W 095°07'1 0.7
2015-Feb-21 16:33N 29°45' W 095°06'1 0.9
2015-Feb-21 15:23N 29°45' W 095°07'0 0.0
2015-Feb-21 14:32N 29°45' W 095°07'0 0.0
2015-Feb-21 13:29N 29°45' W 095°07'0 0.0
2015-Feb-21 12:32N 29°45' W 095°07'0 0.0
2015-Feb-21 11:23N 29°45' W 095°07'0 0.0
2015-Feb-21 10:14N 29°45' W 095°07'0 0.0
2015-Feb-21 09:26N 29°45' W 095°07'1 1.1
2015-Feb-21 08:33N 29°45' W 095°06'1 1.0
2015-Feb-21 07:34N 29°46' W 095°07'0 0.1
2015-Feb-21 06:16N 29°46' W 095°07'0 0.1
2015-Feb-21 05:22N 29°46' W 095°07'0 0.0
2015-Feb-21 04:26N 29°46' W 095°07'1 1.1
2015-Feb-21 03:33N 29°45' W 095°06'7 3.7
2015-Feb-21 01:33N 29°44' W 095°14'0 0.0
2015-Feb-21 00:33N 29°44' W 095°14'0 0.0
2015-Feb-20 23:33N 29°44' W 095°14'0 0.0
2015-Feb-20 22:33N 29°44' W 095°14'0 0.0
2015-Feb-20 21:33N 29°44' W 095°14'0 0.0
2015-Feb-20 20:33N 29°44' W 095°14'0 0.0
2015-Feb-20 19:30N 29°44' W 095°14'0 0.1
2015-Feb-20 18:33N 29°44' W 095°14'0 0.0
2015-Feb-20 17:31N 29°44' W 095°14'0 0.0
2015-Feb-20 16:32N 29°44' W 095°14'0 0.0
2015-Feb-20 15:29N 29°44' W 095°14'0 0.0
2015-Feb-20 14:31N 29°44' W 095°14'0 0.0
2015-Feb-20 13:32N 29°44' W 095°14'0 0.0
2015-Feb-20 12:32N 29°44' W 095°14'0 0.0
2015-Feb-20 11:31N 29°44' W 095°14'0 0.0
2015-Feb-20 10:32N 29°44' W 095°14'0 0.0
2015-Feb-20 09:31N 29°44' W 095°14'0 0.0
2015-Feb-20 08:31N 29°44' W 095°14'3 3.3
2015-Feb-20 07:33N 29°45' W 095°10'4 4.1
2015-Feb-20 06:33N 29°45' W 095°06'0 0.1
2015-Feb-20 05:33N 29°45' W 095°06'1 1.0
2015-Feb-20 04:33N 29°45' W 095°07'1 1.1
2015-Feb-20 03:34N 29°46' W 095°06'0 0.5
2015-Feb-20 02:33N 29°46' W 095°07'0 0.2
2015-Feb-20 01:28N 29°46' W 095°07'0 0.0
2015-Feb-20 00:31N 29°46' W 095°07'0 0.0
2015-Feb-19 23:31N 29°46' W 095°07'0 0.0
2015-Feb-19 22:31N 29°46' W 095°07'0 0.3
2015-Feb-19 21:28N 29°46' W 095°07'0 0.0
2015-Feb-19 20:32N 29°46' W 095°07'1 1.4
2015-Feb-19 19:33N 29°46' W 095°05'2 2.4
2015-Feb-19 18:33N 29°44' W 095°03'5 4.6
2015-Feb-19 17:33N 29°41' W 094°59'5 4.8
2015-Feb-19 16:33N 29°37' W 094°57'5 5.1
2015-Feb-19 15:33N 29°32' W 094°54'6 4.9
2015-Feb-19 14:18N 29°27' W 094°51'4 4.6
2015-Feb-19 13:29N 29°24' W 094°49'2 1.9
2015-Feb-19 12:33N 29°22' W 094°49'5 2.0
2015-Feb-19 10:03N 29°22' W 094°55'0 0.0
2015-Feb-19 07:30N 29°22' W 094°55'0 0.0
2015-Feb-19 04:15N 29°22' W 094°55'0 0.0
2015-Feb-19 03:33N 29°22' W 094°55'0 0.0
2015-Feb-19 02:18N 29°22' W 094°55'0 0.0
2015-Feb-19 01:33N 29°22' W 094°55'0 0.0
2015-Feb-19 00:12N 29°22' W 094°55'0 0.0
2015-Feb-18 23:18N 29°22' W 094°55'4 2.3
2015-Feb-18 21:33N 29°22' W 094°50'  
Track history (hours):
 
Tides and Currents Weather Stations Pressure Air Temp Water Temp Dewpoint Dewpoint Depression Visibility Wind Speed Wind Dir Waves Ship Positions

Belle Chasse

Owner: Higman Barge Lines, Inc, Orange, TX. More information available from US FCC via Universal Licensing System and Coast Guard Vessel Documentation Center.

Last reported at 2015-Feb-27 15:15 UTC. Time now 2015-Feb-27 16:58 UTC.
Position N 29°26' W 094°50'.

Length 26 m; draft 3 m.

Type: Towing. MMSI: 367520550.

Date/timePositionNaut miles runAvg speedWind from/ knotsBaromVisibWave heightAir tempDewpointWater temp
2015-Feb-27 15:15N 29°26' W 094°50'5 7.3
2015-Feb-27 14:33N 29°30' W 094°52'7 7.2
2015-Feb-27 13:33N 29°36' W 094°57'7 7.1
2015-Feb-27 12:33N 29°42' W 095°01'5 5.4
2015-Feb-27 11:33N 29°44' W 095°07'4 0.2
2015-Feb-26 14:32N 29°45' W 095°12'0 0.0
2015-Feb-25 20:18N 29°45' W 095°11'3 3.5
2015-Feb-25 19:33N 29°44' W 095°08'2 2.2
2015-Feb-25 18:33N 29°45' W 095°06'1 1.0
2015-Feb-25 17:29N 29°46' W 095°07'0 0.0
2015-Feb-25 16:13N 29°46' W 095°07'0 0.0
2015-Feb-25 15:22N 29°46' W 095°07'0 0.0
2015-Feb-25 14:28N 29°46' W 095°07'0 0.0
2015-Feb-25 13:22N 29°46' W 095°07'0 0.0
2015-Feb-25 12:22N 29°46' W 095°07'0 0.0
2015-Feb-25 11:28N 29°46' W 095°07'0 0.0
2015-Feb-25 10:28N 29°46' W 095°07'0 0.0
2015-Feb-25 02:30N 29°46' W 095°07'1 1.3
2015-Feb-25 01:32N 29°45' W 095°07'0 0.0
2015-Feb-25 00:32N 29°45' W 095°07'0 0.0
2015-Feb-24 23:32N 29°45' W 095°07'0 0.0
2015-Feb-24 22:26N 29°45' W 095°07'0 0.0
2015-Feb-24 21:32N 29°45' W 095°07'1 1.0
2015-Feb-24 20:30N 29°46' W 095°06'0 0.0
2015-Feb-24 13:31N 29°46' W 095°07'0 0.0
2015-Feb-24 12:31N 29°46' W 095°07'0 0.0
2015-Feb-24 11:31N 29°46' W 095°07'0 0.0
2015-Feb-24 10:31N 29°46' W 095°07'0 0.0
2015-Feb-24 09:31N 29°46' W 095°07'0 0.0
2015-Feb-24 08:31N 29°46' W 095°07'0 0.0
2015-Feb-24 07:31N 29°46' W 095°07'0 0.0
2015-Feb-24 06:31N 29°46' W 095°07'0 0.0
2015-Feb-24 05:31N 29°46' W 095°07'0 0.0
2015-Feb-24 04:31N 29°46' W 095°07'0 0.0
2015-Feb-24 03:31N 29°46' W 095°07'0 0.0
2015-Feb-24 02:31N 29°46' W 095°07'0 0.0
2015-Feb-24 01:31N 29°46' W 095°07'0 0.0
2015-Feb-24 00:25N 29°46' W 095°07'0 0.0
2015-Feb-23 23:31N 29°46' W 095°07'0 0.0
2015-Feb-23 22:31N 29°46' W 095°07'1 1.1
2015-Feb-23 21:33N 29°45' W 095°06'2 1.6
2015-Feb-23 20:33N 29°47' W 095°05'0 0.0
2015-Feb-23 19:33N 29°47' W 095°05'0 0.0
2015-Feb-23 18:33N 29°47' W 095°05'0 0.0
2015-Feb-23 17:27N 29°47' W 095°05'0 0.0
2015-Feb-23 16:24N 29°47' W 095°05'2 2.4
2015-Feb-23 15:31N 29°46' W 095°07'0 0.0
2015-Feb-23 14:16N 29°46' W 095°07'1 1.5
2015-Feb-23 13:28N 29°45' W 095°07'0 0.0
2015-Feb-23 12:31N 29°45' W 095°07'0 0.0
2015-Feb-23 11:28N 29°45' W 095°07'1 1.1
2015-Feb-23 10:33N 29°46' W 095°06'1 0.6
2015-Feb-23 09:31N 29°46' W 095°07'872871.8
2015-Feb-23 08:31N 29°46' W 111°51'872829.8
2015-Feb-23 07:28N 29°46' W 095°07'0 0.0
2015-Feb-23 06:28N 29°46' W 095°07'0 0.0
2015-Feb-23 05:31N 29°46' W 095°07'0 0.0
2015-Feb-23 04:31N 29°46' W 095°07'0 0.0
2015-Feb-23 03:31N 29°46' W 095°07'0 0.0
2015-Feb-23 02:31N 29°46' W 095°07'0 0.0
2015-Feb-23 01:31N 29°46' W 095°07'0 0.0
2015-Feb-23 00:31N 29°46' W 095°07'0 0.0
2015-Feb-22 23:31N 29°46' W 095°07'0 0.1
2015-Feb-22 22:28N 29°46' W 095°07'0 0.0
2015-Feb-22 21:22N 29°46' W 095°07'0 0.0
2015-Feb-22 20:22N 29°46' W 095°07'0 0.0
2015-Feb-22 19:31N 29°46' W 095°07'0 0.1
2015-Feb-22 18:32N 29°46' W 095°07'0 0.0
2015-Feb-22 17:32N 29°46' W 095°07'0 0.0
2015-Feb-22 16:32N 29°46' W 095°07'0 0.1
2015-Feb-22 15:33N 29°46' W 095°07'0 0.1
2015-Feb-22 14:31N 29°46' W 095°07'0 0.0
2015-Feb-22 13:31N 29°46' W 095°07'0 0.0
2015-Feb-22 12:31N 29°46' W 095°07'0 0.0
2015-Feb-22 11:31N 29°46' W 095°07'0 0.0
2015-Feb-22 10:31N 29°46' W 095°07'0 0.0
2015-Feb-22 09:31N 29°46' W 095°07'1 1.3
2015-Feb-22 08:32N 29°45' W 095°06'0 0.0
2015-Feb-22 07:32N 29°45' W 095°06'0 0.0
2015-Feb-22 06:33N 29°45' W 095°06'1 1.2
2015-Feb-22 05:31N 29°46' W 095°07'0 0.0
2015-Feb-22 04:31N 29°46' W 095°07'0 0.0
2015-Feb-22 03:31N 29°46' W 095°07'0 0.0
2015-Feb-22 02:28N 29°46' W 095°07'0 0.0
2015-Feb-22 01:31N 29°46' W 095°07'0 0.0
2015-Feb-22 00:31N 29°46' W 095°07'0 0.0
2015-Feb-21 23:31N 29°46' W 095°07'0 0.0
2015-Feb-21 22:31N 29°46' W 095°07'0 0.0
2015-Feb-21 21:31N 29°46' W 095°07'0 0.0
2015-Feb-21 20:31N 29°46' W 095°07'0 0.0
2015-Feb-21 19:31N 29°46' W 095°07'0 0.0
2015-Feb-21 18:31N 29°46' W 095°07'0 0.0
2015-Feb-21 17:31N 29°46' W 095°07'1 0.7
2015-Feb-21 16:33N 29°45' W 095°06'1 0.9
2015-Feb-21 15:23N 29°45' W 095°07'0 0.0
2015-Feb-21 14:32N 29°45' W 095°07'0 0.0
2015-Feb-21 13:29N 29°45' W 095°07'0 0.0
2015-Feb-21 12:32N 29°45' W 095°07'0 0.0
2015-Feb-21 11:23N 29°45' W 095°07'0 0.0
2015-Feb-21 10:14N 29°45' W 095°07'0 0.0
2015-Feb-21 09:26N 29°45' W 095°07'1 1.1
2015-Feb-21 08:33N 29°45' W 095°06'1 1.0
2015-Feb-21 07:34N 29°46' W 095°07'0 0.1
2015-Feb-21 06:16N 29°46' W 095°07'0 0.1
2015-Feb-21 05:22N 29°46' W 095°07'0 0.0
2015-Feb-21 04:26N 29°46' W 095°07'1 1.1
2015-Feb-21 03:33N 29°45' W 095°06'7 3.7
2015-Feb-21 01:33N 29°44' W 095°14'0 0.0
2015-Feb-21 00:33N 29°44' W 095°14'0 0.0
2015-Feb-20 23:33N 29°44' W 095°14'0 0.0
2015-Feb-20 22:33N 29°44' W 095°14'0 0.0
2015-Feb-20 21:33N 29°44' W 095°14'0 0.0
2015-Feb-20 20:33N 29°44' W 095°14'0 0.0
2015-Feb-20 19:30N 29°44' W 095°14'0 0.1
2015-Feb-20 18:33N 29°44' W 095°14'0 0.0
2015-Feb-20 17:31N 29°44' W 095°14'0 0.0
2015-Feb-20 16:32N 29°44' W 095°14'0 0.0
2015-Feb-20 15:29N 29°44' W 095°14'0 0.0
2015-Feb-20 14:31N 29°44' W 095°14'0 0.0
2015-Feb-20 13:32N 29°44' W 095°14'0 0.0
2015-Feb-20 12:32N 29°44' W 095°14'0 0.0
2015-Feb-20 11:31N 29°44' W 095°14'0 0.0
2015-Feb-20 10:32N 29°44' W 095°14'0 0.0
2015-Feb-20 09:31N 29°44' W 095°14'0 0.0
2015-Feb-20 08:31N 29°44' W 095°14'3 3.3
2015-Feb-20 07:33N 29°45' W 095°10'4 4.1
2015-Feb-20 06:33N 29°45' W 095°06'0 0.1
2015-Feb-20 05:33N 29°45' W 095°06'1 1.0
2015-Feb-20 04:33N 29°45' W 095°07'1 1.1
2015-Feb-20 03:34N 29°46' W 095°06'0 0.5
2015-Feb-20 02:33N 29°46' W 095°07'0 0.2
2015-Feb-20 01:28N 29°46' W 095°07'0 0.0
2015-Feb-20 00:31N 29°46' W 095°07'0 0.0
2015-Feb-19 23:31N 29°46' W 095°07'0 0.0
2015-Feb-19 22:31N 29°46' W 095°07'0 0.3
2015-Feb-19 21:28N 29°46' W 095°07'0 0.0
2015-Feb-19 20:32N 29°46' W 095°07'1 1.4
2015-Feb-19 19:33N 29°46' W 095°05'2 2.4
2015-Feb-19 18:33N 29°44' W 095°03'5 4.6
2015-Feb-19 17:33N 29°41' W 094°59'5 4.8
2015-Feb-19 16:33N 29°37' W 094°57'5 5.1
2015-Feb-19 15:33N 29°32' W 094°54'6 4.9
2015-Feb-19 14:18N 29°27' W 094°51'4 4.6
2015-Feb-19 13:29N 29°24' W 094°49'2 1.9
2015-Feb-19 12:33N 29°22' W 094°49'5 2.0
2015-Feb-19 10:03N 29°22' W 094°55'0 0.0
2015-Feb-19 07:30N 29°22' W 094°55'0 0.0
2015-Feb-19 04:15N 29°22' W 094°55'0 0.0
2015-Feb-19 03:33N 29°22' W 094°55'0 0.0
2015-Feb-19 02:18N 29°22' W 094°55'0 0.0
2015-Feb-19 01:33N 29°22' W 094°55'0 0.0
2015-Feb-19 00:12N 29°22' W 094°55'0 0.0
2015-Feb-18 23:18N 29°22' W 094°55'4 2.3
2015-Feb-18 21:33N 29°22' W 094°50'  

Dump ship's entire track history